createdAt,value
2019-01-15T00:02:44.890Z,2.00
2019-01-15T00:05:32.799Z,2.15
2019-01-15T00:08:21.158Z,98.85
2019-01-15T00:11:08.954Z,94.90
2019-01-15T00:13:57.036Z,95.12
2019-01-15T00:16:44.887Z,98.15
2019-01-15T00:19:33.188Z,104.38
2019-01-15T00:22:21.245Z,107.63
2019-01-15T00:25:09.458Z,96.60
2019-01-15T00:27:57.197Z,97.47
2019-01-15T00:30:45.253Z,100.55
2019-01-15T00:33:32.936Z,101.97
2019-01-15T00:36:20.584Z,28.15
2019-01-15T00:39:08.752Z,26.87
2019-01-15T00:41:56.474Z,29.27
2019-01-15T00:44:44.181Z,19.98
2019-01-15T00:47:31.974Z,92.20
2019-01-15T00:50:20.057Z,100.72
2019-01-15T00:53:07.434Z,56.15
2019-01-15T00:55:55.471Z,2.20
2019-01-15T00:58:43.220Z,17.65
2019-01-15T01:01:30.856Z,97.10
2019-01-15T01:04:18.988Z,89.00
2019-01-15T01:07:06.939Z,46.65
2019-01-15T01:09:54.840Z,2.02
2019-01-15T01:12:42.773Z,52.88
2019-01-15T01:15:30.355Z,99.28
2019-01-15T01:18:18.083Z,125.97
2019-01-15T01:21:05.704Z,1.75
2019-01-15T01:23:53.634Z,1.62
2019-01-15T01:26:41.364Z,50.38
2019-01-15T01:29:29.386Z,45.30
2019-01-15T01:32:17.302Z,19.45
2019-01-15T01:35:05.795Z,19.80
2019-01-15T01:37:53.608Z,45.90
2019-01-15T01:40:41.223Z,46.90
2019-01-15T01:43:28.753Z,131.65
2019-01-15T01:46:16.272Z,76.12
2019-01-15T01:49:03.849Z,46.20
2019-01-15T01:51:51.505Z,106.95
2019-01-15T01:54:39.683Z,78.85
2019-01-15T01:57:27.482Z,2.75
2019-01-15T02:00:20.517Z,2.10
2019-01-15T02:03:08.123Z,102.00
2019-01-15T02:05:55.819Z,106.32
2019-01-15T02:08:43.679Z,3.20
2019-01-15T02:11:31.644Z,87.25
2019-01-15T02:14:19.291Z,35.70
2019-01-15T02:17:07.309Z,34.27
2019-01-15T02:19:55.147Z,32.23
2019-01-15T02:22:42.687Z,29.60
2019-01-15T02:25:30.516Z,28.60
2019-01-15T02:28:18.119Z,38.08
2019-01-15T02:31:05.880Z,35.35
2019-01-15T02:33:53.579Z,33.83
2019-01-15T02:36:41.094Z,37.88
2019-01-15T02:39:28.881Z,49.73
2019-01-15T02:42:18.236Z,4.22
2019-01-15T02:45:07.761Z,114.22
2019-01-15T02:47:55.774Z,53.63
2019-01-15T02:50:43.916Z,21.77
2019-01-15T02:53:31.754Z,20.62
2019-01-15T02:56:21.914Z,2.85
2019-01-15T02:59:10.997Z,19.50
2019-01-15T03:01:58.767Z,21.60
2019-01-15T03:04:46.796Z,2.60
2019-01-15T03:07:34.759Z,2.47
2019-01-15T03:10:22.917Z,2.50
2019-01-15T03:13:11.178Z,2.02
2019-01-15T03:15:58.990Z,2.25
2019-01-15T03:18:47.789Z,2.90
2019-01-15T03:21:35.436Z,2.75
2019-01-15T03:24:23.610Z,3.75
2019-01-15T03:27:11.225Z,2.62
2019-01-15T03:29:59.268Z,2.67
2019-01-15T03:32:47.412Z,2.25
2019-01-15T03:35:37.415Z,3.45
2019-01-15T03:38:25.824Z,2.70
2019-01-15T03:41:14.013Z,1.95
2019-01-15T03:44:04.074Z,2.85
2019-01-15T03:46:52.176Z,3.60
2019-01-15T03:49:40.663Z,2.20
2019-01-15T03:52:28.900Z,2.60
2019-01-15T03:55:16.728Z,2.10
2019-01-15T03:58:04.626Z,2.98
2019-01-15T04:00:52.466Z,1.67
2019-01-15T04:03:40.401Z,2.27
2019-01-15T04:06:28.343Z,2.33
2019-01-15T04:09:16.137Z,1.62
2019-01-15T04:12:06.706Z,1.40
2019-01-15T04:14:54.895Z,1.85
2019-01-15T04:17:42.710Z,1.55
2019-01-15T04:20:30.792Z,1.50
2019-01-15T04:23:21.894Z,1.57
2019-01-15T04:26:09.904Z,1.62
2019-01-15T04:28:57.985Z,1.50
2019-01-15T04:31:45.736Z,2.40
2019-01-15T04:34:35.081Z,1.52
2019-01-15T04:37:23.646Z,1.67
2019-01-15T04:40:14.662Z,1.90
2019-01-15T04:43:02.166Z,1.82
2019-01-15T04:45:50.095Z,1.90
2019-01-15T04:48:38.078Z,1.92
2019-01-15T04:51:25.849Z,1.50
2019-01-15T04:54:13.917Z,1.98
2019-01-15T04:57:02.222Z,2.90
2019-01-15T04:59:50.552Z,2.00
2019-01-15T05:02:39.883Z,2.08
2019-01-15T05:05:27.558Z,2.70
2019-01-15T05:08:15.699Z,1.15
2019-01-15T05:11:03.412Z,1.42
2019-01-15T05:13:51.549Z,1.50
2019-01-15T05:16:39.657Z,1.52
2019-01-15T05:19:27.395Z,1.60
2019-01-15T05:22:18.391Z,1.70
2019-01-15T05:25:08.427Z,1.27
2019-01-15T05:27:56.375Z,1.70
2019-01-15T05:30:44.407Z,1.25
2019-01-15T05:33:32.658Z,1.30
2019-01-15T05:36:20.951Z,1.50
2019-01-15T05:39:09.921Z,1.95
2019-01-15T05:41:58.129Z,1.67
2019-01-15T05:44:46.808Z,1.85
2019-01-15T05:47:35.073Z,1.50
2019-01-15T05:50:30.748Z,1.90
2019-01-15T05:53:18.429Z,1.98
2019-01-15T05:56:06.272Z,1.80
2019-01-15T05:58:54.261Z,2.70
2019-01-15T06:01:43.050Z,2.85
2019-01-15T06:04:31.079Z,2.15
2019-01-15T06:07:19.195Z,3.00
2019-01-15T06:10:10.074Z,2.20
2019-01-15T06:12:58.512Z,2.87
2019-01-15T06:15:46.487Z,1.70
2019-01-15T06:18:34.605Z,2.55
2019-01-15T06:21:22.582Z,2.85
2019-01-15T06:24:10.248Z,83.05
2019-01-15T06:26:57.471Z,104.25
2019-01-15T06:29:48.508Z,123.38
2019-01-15T06:32:36.270Z,2.52
2019-01-15T06:35:24.257Z,79.97
2019-01-15T06:38:12.416Z,104.20
2019-01-15T06:41:00.686Z,86.85
2019-01-15T06:43:50.129Z,96.20
2019-01-15T06:46:37.623Z,39.33
2019-01-15T06:49:25.733Z,27.10
2019-01-15T06:52:14.813Z,40.67
2019-01-15T06:55:02.956Z,34.27
2019-01-15T06:57:51.114Z,31.57
2019-01-15T07:00:39.096Z,34.05
2019-01-15T07:03:27.484Z,49.38
2019-01-15T07:06:15.444Z,30.23
2019-01-15T07:09:04.535Z,30.40
2019-01-15T07:11:52.517Z,20.68
2019-01-15T07:14:40.715Z,16.07
2019-01-15T07:17:28.500Z,16.67
2019-01-15T07:20:16.651Z,19.40
2019-01-15T07:23:04.804Z,21.65
2019-01-15T07:25:52.644Z,19.42
2019-01-15T07:28:40.762Z,18.87
2019-01-15T07:31:28.755Z,24.95
2019-01-15T07:34:18.728Z,21.60
2019-01-15T07:37:06.801Z,17.23
2019-01-15T07:39:56.144Z,16.70
2019-01-15T07:42:44.082Z,145.75
2019-01-15T07:45:31.881Z,133.10
2019-01-15T07:48:19.734Z,75.03
2019-01-15T07:51:08.433Z,134.63
2019-01-15T07:53:56.239Z,108.52
2019-01-15T07:56:44.930Z,75.87
2019-01-15T07:59:32.773Z,46.83
2019-01-15T08:02:21.051Z,44.40
2019-01-15T08:05:10.610Z,37.05
2019-01-15T08:07:58.510Z,109.60
2019-01-15T08:10:46.501Z,101.53
2019-01-15T08:13:37.361Z,109.05
2019-01-15T08:16:25.508Z,125.70
2019-01-15T08:19:14.005Z,141.85
2019-01-15T08:22:02.441Z,158.15
2019-01-15T08:24:50.403Z,141.22
2019-01-15T08:27:38.319Z,140.28
2019-01-15T08:30:28.692Z,5.95
2019-01-15T08:33:16.396Z,7.78
2019-01-15T08:36:05.904Z,9.90
2019-01-15T08:38:54.191Z,7.20
2019-01-15T08:41:42.372Z,4.75
2019-01-15T08:44:31.227Z,90.35
2019-01-15T08:47:20.570Z,163.62
2019-01-15T08:50:10.456Z,96.75
2019-01-15T08:52:58.193Z,150.82
2019-01-15T08:55:46.397Z,153.25
2019-01-15T08:58:34.362Z,65.12
2019-01-15T09:01:23.454Z,134.15
2019-01-15T09:04:11.719Z,19.87
2019-01-15T09:06:59.833Z,14.03
2019-01-15T09:09:47.986Z,16.23
2019-01-15T09:12:35.725Z,16.60
2019-01-15T09:15:23.910Z,19.05
2019-01-15T09:18:11.828Z,19.07
2019-01-15T09:21:00.273Z,18.50
2019-01-15T09:23:48.315Z,16.95
2019-01-15T09:26:37.968Z,15.48
2019-01-15T09:29:25.926Z,8.35
2019-01-15T09:32:13.804Z,7.62
2019-01-15T09:35:01.449Z,6.87
2019-01-15T09:37:50.682Z,4.78
2019-01-15T09:40:38.700Z,7.85
2019-01-15T09:43:26.769Z,39.40
2019-01-15T09:46:14.657Z,95.83
2019-01-15T09:49:02.582Z,43.33
2019-01-15T09:51:50.222Z,1.00
2019-01-15T09:54:38.477Z,58.17
2019-01-15T09:57:26.133Z,101.50
2019-01-15T10:00:14.300Z,69.75
2019-01-15T10:03:02.334Z,98.70
2019-01-15T10:05:50.195Z,103.07
2019-01-15T10:08:38.147Z,41.68
2019-01-15T10:11:26.058Z,0.70
2019-01-15T10:14:14.174Z,59.25
2019-01-15T10:17:02.333Z,111.20
2019-01-15T10:19:50.432Z,85.57
2019-01-15T10:22:38.176Z,86.02
2019-01-15T10:25:30.102Z,100.00
2019-01-15T10:28:18.214Z,35.20
2019-01-15T10:32:00.036Z,0.60
2019-01-15T10:34:47.863Z,1.10
2019-01-15T10:37:35.988Z,0.90
2019-01-15T10:40:24.265Z,0.53
2019-01-15T10:43:12.238Z,0.70
2019-01-15T10:45:59.958Z,1.05
2019-01-15T10:48:47.403Z,1.07
2019-01-15T10:51:35.313Z,0.80
2019-01-15T10:54:23.065Z,0.90
2019-01-15T10:57:11.221Z,0.80
2019-01-15T10:59:58.962Z,0.80
2019-01-15T11:02:46.845Z,0.65
2019-01-15T11:05:34.544Z,0.82
2019-01-15T11:08:22.451Z,0.60
2019-01-15T11:11:10.468Z,0.53
2019-01-15T11:13:58.735Z,0.50
2019-01-15T11:16:46.728Z,0.60
2019-01-15T11:19:34.540Z,0.70
2019-01-15T11:22:22.574Z,0.80
2019-01-15T11:25:11.343Z,1.05
2019-01-15T11:27:59.267Z,0.50
2019-01-15T11:30:46.862Z,0.65
2019-01-15T11:33:34.540Z,0.60
2019-01-15T11:36:22.137Z,0.53
2019-01-15T11:39:10.679Z,0.72
2019-01-15T11:41:58.128Z,0.90
2019-01-15T11:44:45.712Z,0.65
2019-01-15T11:47:33.342Z,0.70
2019-01-15T11:50:20.537Z,0.60
2019-01-15T11:53:07.926Z,0.57
2019-01-15T11:55:55.524Z,0.85
2019-01-15T11:58:43.001Z,0.50
2019-01-15T12:01:47.723Z,0.75
2019-01-15T12:05:00.233Z,0.72
2019-01-15T12:08:15.492Z,0.60
2019-01-15T12:11:20.345Z,0.65
2019-01-15T12:14:25.339Z,0.30
2019-01-15T12:17:41.102Z,0.62
2019-01-15T12:20:46.011Z,0.60
2019-01-15T12:23:51.028Z,0.70
2019-01-15T12:26:55.143Z,22.20
2019-01-15T12:30:07.465Z,55.92
2019-01-15T12:33:07.735Z,27.87
2019-01-15T12:36:29.725Z,94.45
2019-01-15T12:39:35.193Z,0.40
2019-01-15T12:42:43.596Z,0.50
2019-01-15T12:45:48.797Z,3.52
2019-01-15T12:49:01.624Z,4.10
2019-01-15T12:52:13.940Z,0.95
2019-01-15T12:55:17.424Z,0.55
2019-01-15T12:58:29.569Z,0.85
2019-01-15T13:01:40.939Z,1.25
2019-01-15T13:04:43.435Z,0.80
2019-01-15T13:07:43.821Z,0.62
2019-01-15T13:10:56.584Z,0.85
2019-01-15T13:13:59.955Z,0.72
2019-01-15T13:17:05.087Z,1.20
2019-01-15T13:20:12.126Z,0.80
2019-01-15T13:23:30.843Z,0.70
2019-01-15T13:26:37.275Z,106.17
2019-01-15T13:29:41.006Z,153.02
2019-01-15T13:32:42.893Z,77.97
2019-01-15T13:35:48.179Z,98.12
2019-01-15T13:38:47.548Z,29.63
2019-01-15T13:41:49.714Z,16.62
2019-01-15T13:45:02.527Z,16.85
2019-01-15T13:48:07.690Z,0.70
2019-01-15T13:51:12.562Z,0.70
2019-01-15T13:54:22.110Z,0.80
2019-01-15T13:57:28.671Z,0.70
2019-01-15T14:00:47.591Z,1.00
2019-01-15T14:04:02.875Z,0.90
2019-01-15T14:07:08.186Z,0.62
2019-01-15T14:10:23.689Z,1.00
2019-01-15T14:13:24.879Z,1.42
2019-01-15T14:16:43.608Z,3.65
2019-01-15T14:19:39.303Z,1.75
2019-01-15T14:22:48.737Z,4.90
2019-01-15T14:25:52.969Z,4.70
2019-01-15T14:29:08.596Z,13.93
2019-01-15T14:32:09.504Z,0.80
2019-01-15T14:35:27.875Z,2.30
2019-01-15T14:38:32.790Z,1.15
2019-01-15T14:41:48.241Z,1.45
2019-01-15T14:44:57.680Z,4.03
2019-01-15T14:48:02.844Z,3.35
2019-01-15T14:51:07.985Z,5.83
2019-01-15T14:54:23.448Z,12.78
2019-01-15T14:57:21.187Z,17.30
2019-01-15T15:00:45.272Z,113.70
2019-01-15T15:03:39.911Z,22.02
2019-01-15T15:06:39.175Z,105.63
2019-01-15T15:09:39.729Z,109.90
2019-01-15T15:12:41.293Z,97.55
2019-01-15T15:15:38.282Z,67.25
2019-01-15T15:18:45.980Z,71.22
2019-01-15T15:21:50.998Z,32.25
2019-01-15T15:24:49.604Z,10.35
2019-01-15T15:28:05.381Z,18.73
2019-01-15T15:31:14.612Z,4.62
2019-01-15T15:34:26.884Z,3.65
2019-01-15T15:37:36.548Z,6.72
2019-01-15T15:40:36.289Z,4.03
2019-01-15T15:43:41.365Z,5.45
2019-01-15T15:46:44.527Z,7.62
2019-01-15T15:49:51.287Z,9.93
2019-01-15T15:53:00.584Z,3.55
2019-01-15T15:56:10.068Z,15.93
2019-01-15T15:59:16.799Z,6.35
2019-01-15T16:02:30.488Z,13.20
2019-01-15T16:05:25.762Z,5.62
2019-01-15T16:08:22.270Z,13.50
2019-01-15T16:11:33.596Z,1.80
2019-01-15T16:14:38.827Z,2.62
2019-01-15T16:17:34.391Z,2.62
2019-01-15T16:20:30.054Z,1.80
2019-01-15T16:23:35.588Z,3.35
2019-01-15T16:26:30.369Z,2.95
2019-01-15T16:29:48.621Z,3.87
2019-01-15T16:32:50.981Z,1.98
2019-01-15T16:35:47.256Z,3.55
2019-01-15T16:39:09.223Z,2.15
2019-01-15T16:42:07.495Z,2.72
2019-01-15T16:45:06.324Z,2.92
2019-01-15T16:48:15.970Z,2.15
2019-01-15T16:51:27.688Z,2.47
2019-01-15T16:54:35.088Z,3.20
2019-01-15T16:57:31.045Z,5.45
2019-01-15T17:00:47.443Z,7.17
2019-01-15T17:03:46.665Z,13.75
2019-01-15T17:06:47.995Z,4.75
2019-01-15T17:09:45.226Z,3.67
2019-01-15T17:13:00.907Z,4.33
2019-01-15T17:16:13.859Z,62.93
2019-01-15T17:19:11.645Z,118.02
2019-01-15T17:22:16.661Z,16.40
2019-01-15T17:25:15.829Z,34.98
2019-01-15T17:28:18.385Z,26.55
2019-01-15T17:31:34.432Z,19.48
2019-01-15T17:34:56.205Z,7.00
2019-01-15T17:38:09.343Z,3.30
2019-01-15T17:41:14.378Z,2.47
2019-01-15T17:44:11.350Z,5.58
2019-01-15T17:47:17.869Z,6.05
2019-01-15T17:50:27.145Z,14.10
2019-01-15T17:53:32.552Z,8.25
2019-01-15T17:56:36.327Z,6.72
2019-01-15T17:59:41.528Z,14.90
2019-01-15T18:03:06.334Z,10.55
2019-01-15T18:06:06.448Z,14.58
2019-01-15T18:09:14.291Z,8.65
2019-01-15T18:12:19.523Z,7.08
2019-01-15T18:15:31.249Z,10.50
2019-01-15T18:18:47.215Z,8.05
2019-01-15T18:22:03.368Z,12.37
2019-01-15T18:25:09.070Z,6.97
2019-01-15T18:28:09.795Z,3.15
2019-01-15T18:31:25.582Z,8.65
2019-01-15T18:34:44.173Z,18.62
2019-01-15T18:37:50.897Z,8.13
2019-01-15T18:41:00.245Z,14.93
2019-01-15T18:44:09.604Z,56.35
2019-01-15T18:47:14.921Z,114.97
2019-01-15T18:50:21.273Z,76.65
2019-01-15T18:53:28.108Z,95.22
2019-01-15T18:56:37.787Z,5.90
2019-01-15T18:59:43.127Z,5.00
2019-01-15T19:02:48.650Z,5.65
2019-01-15T19:05:54.295Z,2.35
2019-01-15T19:09:04.124Z,3.05
2019-01-15T19:12:14.477Z,3.90
2019-01-15T19:15:27.153Z,4.05
2019-01-15T19:18:32.412Z,3.83
2019-01-15T19:21:38.031Z,2.85
2019-01-15T19:24:44.636Z,4.47
2019-01-15T19:27:49.847Z,3.02
2019-01-15T19:30:55.191Z,2.05
2019-01-15T19:34:01.997Z,2.83
2019-01-15T19:37:14.735Z,3.12
2019-01-15T19:40:24.600Z,5.42
2019-01-15T19:43:34.452Z,23.25
2019-01-15T19:46:50.006Z,101.60
2019-01-15T19:49:55.303Z,76.07
2019-01-15T19:53:02.287Z,24.27
2019-01-15T19:56:17.971Z,16.60
2019-01-15T19:59:33.449Z,5.17
2019-01-15T20:02:35.827Z,5.80
2019-01-15T20:06:00.560Z,6.15
2019-01-15T20:09:04.285Z,7.28
2019-01-15T20:12:07.931Z,7.10
2019-01-15T20:15:23.084Z,6.12
2019-01-15T20:18:28.305Z,4.20
2019-01-15T20:21:37.886Z,4.97
2019-01-15T20:24:43.137Z,5.40
2019-01-15T20:27:43.284Z,6.67
2019-01-15T20:30:50.453Z,5.17
2019-01-15T20:33:55.666Z,4.53
2019-01-15T20:36:52.161Z,3.27
2019-01-15T20:39:47.064Z,3.30
2019-01-15T20:42:51.077Z,5.42
2019-01-15T20:45:58.561Z,3.83
2019-01-15T20:49:14.221Z,4.20
2019-01-15T20:52:17.005Z,60.58
2019-01-15T20:55:15.143Z,32.05
2019-01-15T20:58:24.473Z,4.65
2019-01-15T21:01:31.502Z,4.25
2019-01-15T21:04:40.920Z,5.12
2019-01-15T21:07:41.395Z,4.45
2019-01-15T21:10:46.591Z,6.15
2019-01-15T21:13:53.126Z,5.15
2019-01-15T21:16:53.016Z,5.33
2019-01-15T21:19:58.437Z,4.75
2019-01-15T21:23:09.260Z,4.67
2019-01-15T21:26:07.731Z,4.35
2019-01-15T21:29:29.635Z,4.03
2019-01-15T21:32:36.453Z,4.72
2019-01-15T21:35:54.700Z,4.50
2019-01-15T21:39:00.584Z,58.30
2019-01-15T21:42:04.166Z,76.65
2019-01-15T21:45:09.597Z,68.10
2019-01-15T21:48:15.759Z,31.05
2019-01-15T21:51:31.249Z,11.18
2019-01-15T21:54:40.893Z,7.50
2019-01-15T21:57:46.542Z,4.70
2019-01-15T22:01:12.089Z,6.00
2019-01-15T22:04:37.070Z,4.28
2019-01-15T22:07:42.292Z,4.70
2019-01-15T22:10:48.951Z,8.05
2019-01-15T22:13:54.537Z,3.83
2019-01-15T22:17:13.377Z,4.85
2019-01-15T22:20:16.652Z,5.62
2019-01-15T22:23:26.183Z,4.85
2019-01-15T22:26:31.010Z,5.00
2019-01-15T22:29:29.420Z,4.12
2019-01-15T22:32:34.711Z,4.45
2019-01-15T22:35:41.739Z,3.50
2019-01-15T22:38:53.982Z,4.17
2019-01-15T22:42:06.589Z,3.95
2019-01-15T22:45:18.194Z,4.53
2019-01-15T22:48:24.487Z,3.20
2019-01-15T22:51:30.233Z,3.75
2019-01-15T22:54:40.042Z,3.83
2019-01-15T22:57:37.503Z,4.03
2019-01-15T23:00:57.446Z,3.87
2019-01-15T23:04:07.253Z,90.40
2019-01-15T23:07:23.788Z,32.42
2019-01-15T23:10:24.644Z,4.15
2019-01-15T23:13:19.647Z,4.20
2019-01-15T23:16:29.149Z,12.68
2019-01-15T23:19:34.730Z,4.47
2019-01-15T23:22:47.688Z,4.03
2019-01-15T23:25:54.866Z,3.70
2019-01-15T23:29:08.241Z,4.72
2019-01-15T23:32:13.767Z,4.30
2019-01-15T23:35:07.573Z,4.08
2019-01-15T23:38:11.621Z,4.50
2019-01-15T23:41:36.422Z,4.35
2019-01-15T23:44:41.818Z,4.40
2019-01-15T23:47:56.661Z,3.42
2019-01-15T23:51:02.942Z,3.75
2019-01-15T23:54:01.181Z,3.40
2019-01-15T23:57:23.045Z,3.50
